createdAt,value
2022-10-17T00:01:13.994Z,29.7
2022-10-17T00:03:11.559Z,16.6
2022-10-17T00:05:09.186Z,20
2022-10-17T00:07:14.753Z,22
2022-10-17T00:09:12.417Z,15.2
2022-10-17T00:11:10.035Z,14
2022-10-17T00:13:07.644Z,17.9
2022-10-17T00:19:00.568Z,19.9
2022-10-17T00:21:06.120Z,16.4
2022-10-17T00:23:03.755Z,24
2022-10-17T00:25:01.364Z,17
2022-10-17T00:26:58.992Z,18
2022-10-17T00:30:54.279Z,28.8
2022-10-17T00:34:57.413Z,15
2022-10-17T00:36:55.055Z,22.4
2022-10-17T00:40:50.339Z,13.7
2022-10-17T00:42:47.938Z,13.2
2022-10-17T00:44:45.571Z,16.1
2022-10-17T00:46:43.205Z,21.3
2022-10-17T00:48:48.721Z,18.9
2022-10-17T00:50:46.377Z,26.7
2022-10-17T00:52:43.999Z,23.9
2022-10-17T00:55:01.589Z,-1
2022-10-17T00:57:04.319Z,17.4
2022-10-17T00:59:02.003Z,15.4
2022-10-17T01:01:07.533Z,19.6
2022-10-17T01:03:05.153Z,20.9
2022-10-17T01:05:02.819Z,16.4
2022-10-17T01:07:00.447Z,14.6
2022-10-17T01:10:55.715Z,20.2
2022-10-17T01:12:53.343Z,17.1
2022-10-17T01:16:56.545Z,26.4
2022-10-17T01:18:54.171Z,21.6
2022-10-17T01:20:51.811Z,29.9
2022-10-17T01:22:49.441Z,25.9
2022-10-17T01:24:47.081Z,20.4
2022-10-17T01:26:44.717Z,23
2022-10-17T01:28:50.280Z,25.5
2022-10-17T01:30:47.927Z,23.6
2022-10-17T01:34:43.192Z,19
2022-10-17T01:36:40.814Z,23.7
2022-10-17T01:40:36.323Z,19.8
2022-10-17T01:46:36.946Z,18.9
2022-10-17T01:47:39.720Z,23.4
2022-10-17T01:49:37.338Z,30.1
2022-10-17T01:51:34.984Z,26.2
2022-10-17T01:53:32.637Z,23.6
2022-10-17T01:57:35.808Z,22.5
2022-10-17T01:59:33.450Z,20.6
2022-10-17T02:01:31.164Z,19
2022-10-17T02:03:28.736Z,21.7
2022-10-17T02:05:26.366Z,24.3
2022-10-17T02:07:24.006Z,21
2022-10-17T02:09:29.583Z,22.4
2022-10-17T02:11:28.787Z,17.2
2022-10-17T02:13:26.376Z,22.8
2022-10-17T02:15:24.015Z,22.5
2022-10-17T02:17:21.640Z,20.6
2022-10-17T02:19:19.287Z,22.1
2022-10-17T02:21:16.917Z,19.6
2022-10-17T02:23:22.459Z,28.2
2022-10-17T02:25:20.125Z,20.4
2022-10-17T02:27:17.748Z,26
2022-10-17T02:29:15.361Z,26.2
2022-10-17T02:31:12.990Z,21.9
2022-10-17T02:33:10.593Z,19.2
2022-10-17T02:35:08.252Z,22.1
2022-10-17T02:37:13.790Z,24.9
2022-10-17T02:39:11.423Z,24.7
2022-10-17T02:42:11.874Z,20.8
2022-10-17T02:44:09.468Z,31.5
2022-10-17T02:46:07.124Z,32.9
2022-10-17T02:48:04.761Z,25.3
2022-10-17T02:50:10.300Z,17.8
2022-10-17T02:54:05.572Z,23.1
2022-10-17T02:56:03.243Z,23
2022-10-17T02:58:00.866Z,30.8
2022-10-17T02:59:58.503Z,20.5
2022-10-17T03:01:56.127Z,20.9
2022-10-17T03:04:01.695Z,32.9
2022-10-17T03:05:59.328Z,21.8
2022-10-17T03:09:54.610Z,32.7
2022-10-17T03:11:52.238Z,21.7
2022-10-17T03:13:49.830Z,24
2022-10-17T03:15:47.458Z,26.8
2022-10-17T03:19:50.667Z,33.2
2022-10-17T03:21:48.292Z,25.4
2022-10-17T03:23:45.969Z,31.9
2022-10-17T03:25:43.536Z,42.5
2022-10-17T03:27:41.175Z,28.7
2022-10-17T03:29:38.813Z,33.3
2022-10-17T03:31:44.417Z,30.7
2022-10-17T03:33:42.020Z,37
2022-10-17T03:35:39.770Z,28.7
2022-10-17T03:36:42.450Z,26.4
2022-10-17T03:38:40.081Z,26.8
2022-10-17T03:40:37.707Z,26.7
2022-10-17T03:46:38.509Z,24.1
2022-10-17T03:48:36.110Z,26.2
2022-10-17T03:50:33.769Z,31.2
2022-10-17T03:54:29.010Z,21.8
2022-10-17T03:56:26.649Z,32.4
2022-10-17T03:58:32.237Z,25.6
2022-10-17T04:00:29.886Z,28.8
2022-10-17T04:02:27.497Z,22
2022-10-17T04:04:25.122Z,26.5
2022-10-17T04:06:22.762Z,31.7
2022-10-17T04:08:20.399Z,27.5
2022-10-17T04:10:18.030Z,26.5
2022-10-17T04:12:23.567Z,28.2
2022-10-17T04:14:21.207Z,25.8
2022-10-17T04:16:18.838Z,29.1
2022-10-17T04:22:11.706Z,28.2
2022-10-17T04:26:14.921Z,27.4
2022-10-17T04:28:12.575Z,37.5
2022-10-17T04:30:10.193Z,38.8
2022-10-17T04:32:37.202Z,26.2
2022-10-17T04:36:32.523Z,44
2022-10-17T04:38:38.073Z,33.3
2022-10-17T04:40:35.719Z,33.3
2022-10-17T04:44:31.000Z,30.5
2022-10-17T04:46:28.627Z,25.8
2022-10-17T04:48:26.268Z,35.8
2022-10-17T04:50:23.887Z,36.7
2022-10-17T04:52:29.789Z,28.6
2022-10-17T04:54:27.089Z,33.1
2022-10-17T04:56:24.707Z,27
2022-10-17T04:58:22.340Z,24.8
2022-10-17T05:00:19.978Z,27.3
2022-10-17T05:02:17.637Z,32.2
2022-10-17T05:04:15.254Z,32
2022-10-17T05:06:20.828Z,22.7
2022-10-17T05:08:18.437Z,31.1
2022-10-17T05:12:13.680Z,24.9
2022-10-17T05:16:08.960Z,20.5
2022-10-17T05:18:06.579Z,30.1
2022-10-17T05:20:12.150Z,22.9
2022-10-17T05:22:09.751Z,25.2
2022-10-17T05:24:07.383Z,27.5
2022-10-17T05:25:10.149Z,25.6
2022-10-17T05:27:07.779Z,27.1
2022-10-17T05:29:05.532Z,39
2022-10-17T05:31:03.028Z,29.7
2022-10-17T05:33:08.551Z,24.7
2022-10-17T05:37:03.814Z,23.6
2022-10-17T05:39:01.448Z,31
2022-10-17T05:40:59.088Z,25.4
2022-10-17T05:46:59.862Z,30.4
2022-10-17T05:50:55.115Z,23.8
2022-10-17T05:54:50.362Z,20.4
2022-10-17T05:56:47.999Z,24.7
2022-10-17T06:00:51.142Z,23.2
2022-10-17T06:02:48.768Z,19.2
2022-10-17T06:04:46.372Z,19.3
2022-10-17T06:06:44.070Z,31
2022-10-17T06:08:41.633Z,18.2
2022-10-17T06:10:39.253Z,27.2
2022-10-17T06:14:42.461Z,20.3
2022-10-17T06:16:40.095Z,22.6
2022-10-17T06:18:37.754Z,20.7
2022-10-17T06:19:40.445Z,19
2022-10-17T06:21:38.042Z,31.2
2022-10-17T06:25:33.301Z,19.4
2022-10-17T06:27:38.820Z,18.9
2022-10-17T06:31:34.093Z,20.9
2022-10-17T06:33:31.692Z,17.7
2022-10-17T06:35:29.320Z,27
2022-10-17T06:37:28.367Z,24.5
2022-10-17T06:39:24.543Z,23.5
2022-10-17T06:41:30.096Z,18
2022-10-17T06:43:28.062Z,30.1
2022-10-17T06:45:25.355Z,27.3
2022-10-17T06:47:22.970Z,21.4
2022-10-17T06:49:20.587Z,15.1
2022-10-17T06:51:18.222Z,18.1
2022-10-17T06:53:15.897Z,18.9
2022-10-17T06:55:23.114Z,25
2022-10-17T06:57:19.025Z,14.3
2022-10-17T06:59:16.656Z,17.1
2022-10-17T07:01:14.255Z,18.8
2022-10-17T07:03:11.873Z,47.9
2022-10-17T07:05:09.521Z,20.6
2022-10-17T07:07:07.168Z,18.1
2022-10-17T07:09:12.677Z,19.6
2022-10-17T07:11:10.290Z,15.2
2022-10-17T07:13:07.919Z,17.7
2022-10-17T07:16:08.294Z,12.9
2022-10-17T07:18:05.905Z,13.7
2022-10-17T07:20:03.549Z,14.8
2022-10-17T07:22:09.081Z,14.4
2022-10-17T07:24:06.740Z,12.7
2022-10-17T07:26:04.304Z,16.3
2022-10-17T07:28:01.939Z,21.6
2022-10-17T07:29:59.559Z,20.1
2022-10-17T07:31:57.154Z,20.6
2022-10-17T07:33:54.773Z,16.8
2022-10-17T07:36:00.323Z,15.7
2022-10-17T07:37:57.941Z,14.1
2022-10-17T07:41:53.135Z,11.4
2022-10-17T07:43:50.772Z,10.6
2022-10-17T07:45:48.377Z,22.6
2022-10-17T07:47:45.989Z,13.5
2022-10-17T07:49:51.510Z,17
2022-10-17T07:51:49.154Z,28
2022-10-17T07:53:48.949Z,28.3
2022-10-17T07:57:43.487Z,13.7
2022-10-17T07:59:41.086Z,8.8
2022-10-17T08:01:38.713Z,14.7
2022-10-17T08:03:44.255Z,10.9
2022-10-17T08:05:41.881Z,11.1
2022-10-17T08:10:06.431Z,11.1
2022-10-17T08:12:04.019Z,27.7
2022-10-17T08:16:07.123Z,12.3
2022-10-17T08:18:04.750Z,11.9
2022-10-17T08:20:02.402Z,9.1
2022-10-17T08:22:00.011Z,15.7
2022-10-17T08:23:57.643Z,17.4
2022-10-17T08:25:55.242Z,16.3
2022-10-17T08:27:52.860Z,10.4
2022-10-17T08:29:58.388Z,10.9
2022-10-17T08:32:00.229Z,28.2
2022-10-17T08:33:53.586Z,17.2
2022-10-17T08:35:51.198Z,22.4
2022-10-17T08:37:48.823Z,11.9
2022-10-17T08:43:49.544Z,16
2022-10-17T08:51:39.965Z,12.6
2022-10-17T08:53:37.574Z,21.9
2022-10-17T08:55:35.161Z,23.5
2022-10-17T08:57:40.693Z,20.5
2022-10-17T08:59:38.317Z,12.9
2022-10-17T09:01:35.944Z,15.1
2022-10-17T09:02:38.866Z,17.6
2022-10-17T09:04:36.318Z,14.2
2022-10-17T09:06:33.934Z,18.2
2022-10-17T09:08:31.550Z,17.2
2022-10-17T09:10:37.082Z,30.2
2022-10-17T09:12:34.713Z,19.7
2022-10-17T09:14:32.307Z,26.2
2022-10-17T09:16:29.931Z,23.9
2022-10-17T09:18:27.538Z,28.7
2022-10-17T09:22:22.753Z,35.5
2022-10-17T09:24:28.276Z,19.8
2022-10-17T09:28:23.503Z,24.5
2022-10-17T09:30:40.091Z,28.2
2022-10-17T09:32:18.679Z,17
2022-10-17T09:36:13.905Z,43.7
2022-10-17T09:38:19.450Z,22.7
2022-10-17T09:46:09.917Z,23.9
2022-10-17T09:48:07.503Z,46.5
2022-10-17T09:50:05.145Z,22.9
2022-10-17T09:54:08.281Z,40
2022-10-17T09:56:05.891Z,21.4
2022-10-17T09:57:08.704Z,28
2022-10-17T09:59:09.289Z,24
2022-10-17T10:01:03.955Z,21.1
2022-10-17T10:03:01.520Z,28.1
2022-10-17T10:05:07.504Z,46.9
2022-10-17T10:07:04.668Z,25.5
2022-10-17T10:09:02.293Z,30.2
2022-10-17T10:10:59.907Z,19.4
2022-10-17T10:12:57.524Z,19.1
2022-10-17T10:14:55.476Z,18.9
2022-10-17T10:16:52.752Z,19.8
2022-10-17T10:18:58.290Z,25.5
2022-10-17T10:20:55.867Z,20.1
2022-10-17T10:22:55.917Z,23.4
2022-10-17T10:24:51.093Z,21.9
2022-10-17T10:26:48.699Z,34.1
2022-10-17T10:28:47.375Z,19.9
2022-10-17T10:30:44.926Z,22.5
2022-10-17T10:32:50.455Z,26.3
2022-10-17T10:34:48.077Z,21.5
2022-10-17T10:36:45.694Z,28.2
2022-10-17T10:38:43.321Z,21.9
2022-10-17T10:40:40.909Z,41.8
2022-10-17T10:42:38.518Z,28
2022-10-17T10:46:41.675Z,18.7
2022-10-17T10:48:39.273Z,168.1
2022-10-17T10:51:39.667Z,203.2
2022-10-17T10:55:34.903Z,136.6
2022-10-17T10:59:38.071Z,420
2022-10-17T11:07:28.867Z,14
2022-10-17T11:09:28.811Z,16.8
2022-10-17T11:11:23.721Z,14.2
2022-10-17T11:13:29.283Z,15.2
2022-10-17T11:15:26.876Z,14.6
2022-10-17T11:17:24.493Z,17.4
2022-10-17T11:19:22.098Z,13.5
2022-10-17T11:21:19.712Z,14.9
2022-10-17T11:23:17.316Z,10.5
2022-10-17T11:25:14.894Z,10.5
2022-10-17T11:27:20.429Z,10
2022-10-17T11:29:18.009Z,9.7
2022-10-17T11:31:15.626Z,11.8
2022-10-17T11:33:13.207Z,11.1
2022-10-17T11:35:10.804Z,12.3
2022-10-17T11:37:08.404Z,8
2022-10-17T11:39:05.988Z,7.6
2022-10-17T11:41:11.499Z,7.6
2022-10-17T11:43:09.106Z,5.8
2022-10-17T11:45:06.704Z,9.4
2022-10-17T11:47:33.578Z,7.8
2022-10-17T11:49:33.005Z,13.4
2022-10-17T11:52:00.386Z,7.9
2022-10-17T11:53:34.285Z,13.3
2022-10-17T11:59:27.105Z,6.6
2022-10-17T12:01:24.715Z,6.7
2022-10-17T12:03:22.308Z,12.7
2022-10-17T12:05:19.932Z,9.5
2022-10-17T12:07:25.535Z,10.1
2022-10-17T12:09:23.108Z,8.5
2022-10-17T12:11:20.698Z,10.5
2022-10-17T12:13:18.294Z,7.9
2022-10-17T12:15:15.895Z,12.9
2022-10-17T12:17:13.489Z,6.5
2022-10-17T12:19:11.112Z,7.4
2022-10-17T12:21:16.639Z,6.8
2022-10-17T12:23:14.253Z,8
2022-10-17T12:25:11.883Z,16.6
2022-10-17T12:27:09.414Z,13.6
2022-10-17T12:29:07.084Z,60.8
2022-10-17T12:31:04.630Z,23
2022-10-17T12:33:06.605Z,14.1
2022-10-17T12:35:07.729Z,12.5
2022-10-17T12:37:05.313Z,7.6
2022-10-17T12:39:02.908Z,8
2022-10-17T12:40:05.677Z,9.5
2022-10-17T12:42:03.269Z,17.9
2022-10-17T12:44:00.863Z,4.8
2022-10-17T12:45:58.460Z,9.6
2022-10-17T12:48:03.966Z,7
2022-10-17T12:50:01.574Z,6
2022-10-17T12:51:59.177Z,8
2022-10-17T12:53:56.788Z,7.4
2022-10-17T12:57:51.965Z,7.4
2022-10-17T12:59:49.523Z,5.9
2022-10-17T13:01:55.134Z,8.3
2022-10-17T13:07:47.841Z,9.9
2022-10-17T13:11:43.067Z,5.6
2022-10-17T13:13:40.621Z,12.7
2022-10-17T13:17:43.949Z,16.1
2022-10-17T13:21:38.973Z,13.1
2022-10-17T13:25:37.588Z,9.5
2022-10-17T13:27:31.730Z,9.3
2022-10-17T13:29:37.243Z,8.2
2022-10-17T13:31:34.814Z,12.2
2022-10-17T13:33:32.419Z,11.8
2022-10-17T13:36:33.188Z,14
2022-10-17T13:38:30.795Z,14.3
2022-10-17T13:40:44.685Z,10.5
2022-10-17T13:42:34.210Z,13.3
2022-10-17T13:44:31.520Z,12
2022-10-17T13:46:37.327Z,13
2022-10-17T13:48:26.703Z,10.5
2022-10-17T13:50:42.966Z,10.1
2022-10-17T13:52:21.884Z,24.5
2022-10-17T13:54:19.473Z,9.9
2022-10-17T13:56:28.287Z,11.2
2022-10-17T13:58:22.581Z,17.5
2022-10-17T14:00:20.204Z,19.7
2022-10-17T14:02:17.819Z,13.2
2022-10-17T14:04:20.186Z,12.1
2022-10-17T14:06:12.994Z,12
2022-10-17T14:08:13.410Z,12.8
2022-10-17T14:10:16.107Z,20.8
2022-10-17T14:12:13.717Z,17.1
2022-10-17T14:14:11.285Z,15.8
2022-10-17T14:16:08.894Z,14.9
2022-10-17T14:18:07.993Z,14.2
2022-10-17T14:20:34.511Z,20.2
2022-10-17T14:22:01.738Z,13
2022-10-17T14:24:07.227Z,16.5
2022-10-17T14:26:04.823Z,13
2022-10-17T14:28:02.413Z,13.7
2022-10-17T14:33:00.407Z,12.1
2022-10-17T14:35:10.569Z,17.4
2022-10-17T14:37:03.496Z,13.6
2022-10-17T14:39:01.908Z,12.4
2022-10-17T14:41:09.811Z,12.5
2022-10-17T14:42:56.279Z,11
2022-10-17T14:44:53.895Z,13.1
2022-10-17T14:46:51.464Z,27.6
2022-10-17T14:48:49.074Z,10.4
2022-10-17T14:50:54.586Z,22.2
2022-10-17T14:52:52.163Z,9.4
2022-10-17T14:54:49.753Z,9.7
2022-10-17T14:56:47.323Z,12
2022-10-17T14:58:44.917Z,9.4
2022-10-17T15:00:42.542Z,10.9
2022-10-17T15:02:40.120Z,9.6
2022-10-17T15:04:45.637Z,43.1
2022-10-17T15:08:40.841Z,15.2
2022-10-17T15:10:38.388Z,163.9
2022-10-17T15:12:35.959Z,105.8
2022-10-17T15:14:33.551Z,69.9
2022-10-17T15:16:31.108Z,14
2022-10-17T15:18:36.642Z,14.3
2022-10-17T15:20:34.203Z,11
2022-10-17T15:22:32.216Z,10.7
2022-10-17T15:24:52.572Z,23.5
2022-10-17T15:26:50.188Z,9.8
2022-10-17T15:28:47.786Z,18.1
2022-10-17T15:30:53.313Z,11
2022-10-17T15:32:50.867Z,13
2022-10-17T15:34:48.456Z,13.1
2022-10-17T15:36:46.051Z,15.7
2022-10-17T15:38:43.650Z,17.6
2022-10-17T15:40:41.286Z,11
2022-10-17T15:42:38.830Z,14
2022-10-17T15:44:44.358Z,13
2022-10-17T15:46:41.977Z,12.9
2022-10-17T15:48:39.553Z,17
2022-10-17T15:50:37.135Z,12.1
2022-10-17T15:52:34.719Z,13.5
2022-10-17T15:54:32.336Z,10.4
2022-10-17T15:56:29.896Z,13.4
2022-10-17T15:58:35.440Z,21.5
2022-10-17T16:00:33.059Z,11.6
2022-10-17T16:02:30.623Z,94.4
2022-10-17T16:04:28.258Z,16.3
2022-10-17T16:06:25.848Z,13.5
2022-10-17T16:08:23.462Z,14.7
2022-10-17T16:10:21.030Z,15.1
2022-10-17T16:12:26.555Z,16.5
2022-10-17T16:14:24.168Z,17.3
2022-10-17T16:19:22.118Z,13.8
2022-10-17T16:21:19.786Z,15.8
2022-10-17T16:23:17.321Z,16.1
2022-10-17T16:25:22.867Z,24.4
2022-10-17T16:29:18.119Z,18.3
2022-10-17T16:31:15.622Z,22.6
2022-10-17T16:33:13.235Z,28.5
2022-10-17T16:35:10.847Z,23.1
2022-10-17T16:37:08.454Z,23.7
2022-10-17T16:39:14.075Z,34.9
2022-10-17T16:41:11.603Z,24.8
2022-10-17T16:43:09.206Z,22.8
2022-10-17T16:45:06.811Z,21.5
2022-10-17T16:47:04.393Z,17.7
2022-10-17T16:49:02.035Z,23.1
2022-10-17T16:50:59.634Z,33.4
2022-10-17T16:53:05.197Z,19.7
2022-10-17T16:55:02.847Z,27.2
2022-10-17T16:57:00.419Z,21.2
2022-10-17T16:58:58.034Z,44.1
2022-10-17T17:00:55.739Z,24.8
2022-10-17T17:02:53.245Z,27.6
2022-10-17T17:04:50.856Z,30.3
2022-10-17T17:06:56.384Z,33.2
2022-10-17T17:08:53.961Z,30.5
2022-10-17T17:10:51.570Z,29.9
2022-10-17T17:11:54.323Z,33.2
2022-10-17T17:13:51.949Z,43.1
2022-10-17T17:15:49.544Z,55.3
2022-10-17T17:17:51.426Z,68.5
2022-10-17T17:23:47.897Z,45.6
2022-10-17T17:25:45.499Z,59
2022-10-17T17:27:43.096Z,74.3
2022-10-17T17:29:40.700Z,72.8
2022-10-17T17:31:38.306Z,38.4
2022-10-17T17:33:43.853Z,39
2022-10-17T17:35:41.415Z,232.2
2022-10-17T17:37:39.025Z,287.2
2022-10-17T17:39:36.635Z,66.6
2022-10-17T17:41:34.245Z,40.6
2022-10-17T17:43:31.846Z,119.3
2022-10-17T17:45:29.458Z,40.8
2022-10-17T17:51:30.203Z,36.4
2022-10-17T17:53:27.858Z,49.8
2022-10-17T17:55:25.452Z,93.8
2022-10-17T17:57:23.039Z,37.1
2022-10-17T17:59:20.645Z,29.8
2022-10-17T18:01:26.250Z,35.9
2022-10-17T18:03:23.763Z,80.7
2022-10-17T18:05:21.357Z,49.3
2022-10-17T18:06:24.136Z,60.6
2022-10-17T18:08:21.729Z,41.6
2022-10-17T18:10:19.330Z,28.2
2022-10-17T18:12:16.911Z,40.7
2022-10-17T18:14:22.470Z,38.8
2022-10-17T18:16:20.108Z,40.7
2022-10-17T18:18:17.654Z,32.4
2022-10-17T18:20:15.280Z,44
2022-10-17T18:22:12.892Z,40.2
2022-10-17T18:24:10.458Z,37.9
2022-10-17T18:26:08.074Z,57.8
2022-10-17T18:28:13.605Z,28.3
2022-10-17T18:30:11.203Z,29.7
2022-10-17T18:32:08.841Z,34.3
2022-10-17T18:34:06.418Z,37.4
2022-10-17T18:36:06.959Z,34.1
2022-10-17T18:38:01.610Z,50.9
2022-10-17T18:44:02.334Z,38.4
2022-10-17T18:45:59.940Z,41.6
2022-10-17T18:47:57.558Z,37.8
2022-10-17T18:49:55.135Z,37
2022-10-17T18:51:52.750Z,41.2
2022-10-17T18:53:50.322Z,35.8
2022-10-17T18:55:55.871Z,48.6
2022-10-17T18:57:53.491Z,46.5
2022-10-17T18:59:51.122Z,36.7
2022-10-17T19:02:18.028Z,46.1
2022-10-17T19:04:15.638Z,52
2022-10-17T19:06:13.232Z,51.7
2022-10-17T19:08:18.758Z,44.1
2022-10-17T19:10:16.384Z,44.6
2022-10-17T19:12:13.986Z,61.3
2022-10-17T19:14:11.600Z,53.1
2022-10-17T19:16:10.764Z,67
2022-10-17T19:18:08.323Z,55.6
2022-10-17T19:20:05.931Z,52.1
2022-10-17T19:24:09.059Z,57.7
2022-10-17T19:26:06.660Z,46.5
2022-10-17T19:28:04.272Z,50.4
2022-10-17T19:30:01.879Z,68.1
2022-10-17T19:31:59.469Z,63.5
2022-10-17T19:33:57.061Z,59.5
2022-10-17T19:36:02.595Z,55.9
2022-10-17T19:38:00.217Z,68.8
2022-10-17T19:39:57.809Z,69
2022-10-17T19:41:55.401Z,67.8
2022-10-17T19:43:53.020Z,64.8
2022-10-17T19:45:50.631Z,72.6
2022-10-17T19:47:48.266Z,70.4
2022-10-17T19:49:53.921Z,69.1
2022-10-17T19:51:51.427Z,74.9
2022-10-17T19:53:49.006Z,70.8
2022-10-17T19:54:51.780Z,71.3
2022-10-17T19:56:49.419Z,76.9
2022-10-17T19:58:47.027Z,84.7
2022-10-17T20:00:44.623Z,84.6
2022-10-17T20:02:50.134Z,88.8
2022-10-17T20:04:54.523Z,98.5
2022-10-17T20:10:40.568Z,86.3
2022-10-17T20:12:38.211Z,82.5
2022-10-17T20:14:40.073Z,83.2
2022-10-17T20:16:41.321Z,81.3
2022-10-17T20:18:38.922Z,88.5
2022-10-17T20:20:36.562Z,77.1
2022-10-17T20:24:31.724Z,69.6
2022-10-17T20:26:38.751Z,68.4
2022-10-17T20:28:27.015Z,74.4
2022-10-17T20:30:32.515Z,75.8
2022-10-17T20:32:30.557Z,87.2
2022-10-17T20:34:27.696Z,73.9
2022-10-17T20:36:25.324Z,73.6
2022-10-17T20:38:22.899Z,69
2022-10-17T20:40:34.796Z,81.3
2022-10-17T20:42:18.110Z,69.9
2022-10-17T20:48:18.838Z,74
2022-10-17T20:49:21.598Z,69.9
2022-10-17T20:51:19.222Z,69.4
2022-10-17T20:53:35.309Z,80.6
2022-10-17T20:59:17.572Z,95.5
2022-10-17T21:01:15.208Z,70.4
2022-10-17T21:03:12.780Z,71.9
2022-10-17T21:05:10.361Z,76.7
2022-10-17T21:07:07.959Z,73.8
2022-10-17T21:09:05.540Z,70.9
2022-10-17T21:11:11.078Z,60.9
2022-10-17T21:13:08.668Z,79.7
2022-10-17T21:15:06.266Z,73.1
2022-10-17T21:19:01.487Z,61.1
2022-10-17T21:20:59.373Z,72.3
2022-10-17T21:22:56.721Z,62.9
2022-10-17T21:25:02.266Z,60
2022-10-17T21:26:59.925Z,70.7
2022-10-17T21:28:57.495Z,77.9
2022-10-17T21:30:55.039Z,69.3
2022-10-17T21:32:52.759Z,73.5
2022-10-17T21:34:50.254Z,66.3
2022-10-17T21:36:47.867Z,78.1
2022-10-17T21:38:53.422Z,72.4
2022-10-17T21:40:52.601Z,78.5
2022-10-17T21:42:48.611Z,94.5
2022-10-17T21:43:51.356Z,73.7
2022-10-17T21:45:48.946Z,71.6
2022-10-17T21:48:07.858Z,62.7
2022-10-17T21:49:44.152Z,76.5
2022-10-17T21:51:49.708Z,91.6
2022-10-17T21:53:47.333Z,63.3
2022-10-17T21:55:44.903Z,71
2022-10-17T21:57:42.527Z,72.9
2022-10-17T22:01:37.762Z,85.4
2022-10-17T22:05:40.884Z,82.1
2022-10-17T22:07:38.507Z,60.1
2022-10-17T22:09:36.089Z,65.4
2022-10-17T22:11:33.725Z,64.5
2022-10-17T22:13:31.334Z,74.9
2022-10-17T22:15:28.933Z,62.6
2022-10-17T22:17:26.517Z,64.1
2022-10-17T22:19:32.058Z,84.9
2022-10-17T22:21:29.658Z,66.5
2022-10-17T22:23:27.274Z,85.9
2022-10-17T22:27:22.516Z,65.4
2022-10-17T22:29:20.130Z,74.2
2022-10-17T22:31:17.738Z,61.8
2022-10-17T22:33:23.274Z,78.3
2022-10-17T22:35:21.009Z,88
2022-10-17T22:37:18.477Z,83.3
2022-10-17T22:39:45.375Z,70.5
2022-10-17T22:41:43.017Z,77.9
2022-10-17T22:43:40.628Z,63.2
2022-10-17T22:45:46.187Z,76.6
2022-10-17T22:47:43.767Z,72
2022-10-17T22:49:41.407Z,62
2022-10-17T22:53:36.627Z,88.1
2022-10-17T22:55:34.222Z,78.6
2022-10-17T22:57:31.863Z,62.7
2022-10-17T22:59:37.393Z,70.6
2022-10-17T23:01:35.060Z,65
2022-10-17T23:03:32.596Z,67.7
2022-10-17T23:05:30.210Z,74.4
2022-10-17T23:07:27.826Z,81
2022-10-17T23:11:23.031Z,70
2022-10-17T23:13:28.548Z,66.6
2022-10-17T23:15:26.138Z,82.7
2022-10-17T23:17:23.778Z,73.9
2022-10-17T23:19:21.344Z,70.1
2022-10-17T23:21:18.968Z,67.5
2022-10-17T23:25:14.175Z,73.7
2022-10-17T23:32:17.704Z,110.1
2022-10-17T23:34:15.296Z,80.7
2022-10-17T23:36:12.881Z,83.8
2022-10-17T23:38:10.509Z,60.9
2022-10-17T23:40:16.024Z,83.2
2022-10-17T23:42:13.650Z,99.3
2022-10-17T23:44:11.255Z,70.6
2022-10-17T23:46:08.900Z,77.7
2022-10-17T23:48:06.495Z,81.1
2022-10-17T23:50:04.120Z,85.5
2022-10-17T23:52:01.722Z,97.8
2022-10-17T23:54:07.260Z,85.6
2022-10-17T23:56:04.867Z,80.2
2022-10-17T23:58:02.461Z,97.2
